createdAt,value
2019-05-03T00:02:02.270Z,37.98
2019-05-03T00:04:32.410Z,33.15
2019-05-03T00:07:02.755Z,45.20
2019-05-03T00:09:33.277Z,39.00
2019-05-03T00:12:03.422Z,39.25
2019-05-03T00:14:33.972Z,38.25
2019-05-03T00:17:04.193Z,39.33
2019-05-03T00:19:34.436Z,37.87
2019-05-03T00:22:04.610Z,48.38
2019-05-03T00:24:34.762Z,38.20
2019-05-03T00:27:04.884Z,38.92
2019-05-03T00:29:35.199Z,38.70
2019-05-03T00:32:05.389Z,39.92
2019-05-03T00:34:41.845Z,42.25
2019-05-03T00:37:14.557Z,37.63
2019-05-03T00:40:02.372Z,39.10
2019-05-03T00:42:33.667Z,38.80
2019-05-03T00:45:05.104Z,42.38
2019-05-03T00:47:35.429Z,38.93
2019-05-03T00:50:06.418Z,41.10
2019-05-03T00:52:36.770Z,35.40
2019-05-03T00:55:16.322Z,37.23
2019-05-03T00:57:39.149Z,49.07
2019-05-03T01:00:09.798Z,37.55
2019-05-03T01:02:39.990Z,39.55
2019-05-03T01:05:11.942Z,34.70
2019-05-03T01:07:43.204Z,34.17
2019-05-03T01:10:13.888Z,28.32
2019-05-03T01:12:44.237Z,34.92
2019-05-03T01:15:31.976Z,36.83
2019-05-03T01:18:04.513Z,32.13
2019-05-03T01:20:34.648Z,37.53
2019-05-03T01:23:04.817Z,36.08
2019-05-03T01:25:35.612Z,38.58
2019-05-03T01:28:05.961Z,39.45
2019-05-03T01:30:36.238Z,34.10
2019-05-03T01:33:06.544Z,45.43
2019-05-03T01:35:36.653Z,40.50
2019-05-03T01:38:06.988Z,34.65
2019-05-03T01:40:37.153Z,33.50
2019-05-03T01:43:07.326Z,40.03
2019-05-03T01:45:37.478Z,36.10
2019-05-03T01:48:26.101Z,32.00
2019-05-03T01:51:24.729Z,32.33
2019-05-03T01:53:54.872Z,35.78
2019-05-03T01:56:25.045Z,36.40
2019-05-03T01:58:55.180Z,35.13
2019-05-03T02:01:51.673Z,39.75
2019-05-03T02:04:53.398Z,42.43
2019-05-03T02:07:23.591Z,40.70
2019-05-03T02:09:53.751Z,44.00
2019-05-03T02:12:24.017Z,46.60
2019-05-03T02:14:54.170Z,35.85
2019-05-03T02:17:24.310Z,40.40
2019-05-03T02:19:54.465Z,41.35
2019-05-03T02:22:24.580Z,38.80
2019-05-03T02:24:54.730Z,39.58
2019-05-03T02:27:24.965Z,43.30
2019-05-03T02:29:55.113Z,35.13
2019-05-03T02:32:25.250Z,33.90
2019-05-03T02:34:55.393Z,42.30
2019-05-03T02:37:25.536Z,40.67
2019-05-03T02:39:57.722Z,38.35
2019-05-03T02:42:27.881Z,44.08
2019-05-03T02:44:59.930Z,38.28
2019-05-03T02:47:49.268Z,35.83
2019-05-03T02:50:21.142Z,41.92
2019-05-03T02:52:51.253Z,42.98
2019-05-03T02:55:21.406Z,44.65
2019-05-03T02:57:51.526Z,45.90
2019-05-03T03:00:38.729Z,44.48
2019-05-03T03:03:08.865Z,43.58
2019-05-03T03:05:39.550Z,46.08
2019-05-03T03:08:10.078Z,47.50
2019-05-03T03:10:41.041Z,44.77
2019-05-03T03:13:12.384Z,40.90
2019-05-03T03:15:45.855Z,33.00
2019-05-03T03:18:17.354Z,54.40
2019-05-03T03:20:50.600Z,46.42
2019-05-03T03:23:26.181Z,43.78
2019-05-03T03:25:57.568Z,52.75
2019-05-03T03:28:30.282Z,51.02
2019-05-03T03:31:28.256Z,43.70
2019-05-03T03:34:00.424Z,48.98
2019-05-03T03:36:50.513Z,44.42
2019-05-03T03:39:06.105Z,39.70
2019-05-03T03:41:37.811Z,47.35
2019-05-03T03:44:08.482Z,44.95
2019-05-03T03:46:40.667Z,38.08
2019-05-03T03:49:11.803Z,35.68
2019-05-03T03:51:42.507Z,42.27
2019-05-03T03:54:16.366Z,40.15
2019-05-03T03:56:59.386Z,34.25
2019-05-03T03:59:26.821Z,36.17
2019-05-03T04:02:00.064Z,37.20
2019-05-03T04:04:30.730Z,37.15
2019-05-03T04:07:01.735Z,39.70
2019-05-03T04:09:36.404Z,48.92
2019-05-03T04:12:08.521Z,37.17
2019-05-03T04:15:05.654Z,40.33
2019-05-03T04:17:57.749Z,42.38
2019-05-03T04:20:36.733Z,39.73
2019-05-03T04:23:07.273Z,41.40
2019-05-03T04:25:38.109Z,40.80
2019-05-03T04:28:10.074Z,39.13
2019-05-03T04:30:40.708Z,34.70
2019-05-03T04:33:10.865Z,49.40
2019-05-03T04:35:41.985Z,39.08
2019-05-03T04:38:12.133Z,39.70
2019-05-03T04:40:45.127Z,37.90
2019-05-03T04:43:16.490Z,38.88
2019-05-03T04:46:01.100Z,30.92
2019-05-03T04:48:31.315Z,32.35
2019-05-03T04:51:01.591Z,28.75
2019-05-03T04:53:35.580Z,27.82
2019-05-03T04:56:05.826Z,25.60
2019-05-03T04:58:36.645Z,20.27
2019-05-03T05:01:08.494Z,23.27
2019-05-03T05:03:38.628Z,22.25
2019-05-03T05:06:08.842Z,25.15
2019-05-03T05:08:39.023Z,25.60
2019-05-03T05:11:10.591Z,25.45
2019-05-03T05:13:41.148Z,22.40
2019-05-03T05:16:11.295Z,28.57
2019-05-03T05:18:46.851Z,30.60
2019-05-03T05:21:25.259Z,26.73
2019-05-03T05:24:05.833Z,36.85
2019-05-03T05:26:55.026Z,40.45
2019-05-03T05:29:29.234Z,37.53
2019-05-03T05:31:59.352Z,35.60
2019-05-03T05:34:29.506Z,36.77
2019-05-03T05:36:59.640Z,34.38
2019-05-03T05:39:29.794Z,36.98
2019-05-03T05:42:00.025Z,29.32
2019-05-03T05:44:31.327Z,26.80
2019-05-03T05:47:11.039Z,29.00
2019-05-03T05:50:04.995Z,23.30
2019-05-03T05:52:35.312Z,25.02
2019-05-03T05:55:29.092Z,23.73
2019-05-03T05:58:08.460Z,26.68
2019-05-03T06:00:52.275Z,28.65
2019-05-03T06:03:25.265Z,25.68
2019-05-03T06:05:57.562Z,22.32
2019-05-03T06:08:36.780Z,18.32
2019-05-03T06:11:18.941Z,22.73
2019-05-03T06:13:54.599Z,20.80
2019-05-03T06:16:39.076Z,20.25
2019-05-03T06:19:31.917Z,21.57
2019-05-03T06:22:09.884Z,24.87
2019-05-03T06:24:45.530Z,15.05
2019-05-03T06:27:25.192Z,20.90
2019-05-03T06:29:57.893Z,18.37
2019-05-03T06:32:34.647Z,17.75
2019-05-03T06:35:05.230Z,17.30
2019-05-03T06:37:41.287Z,13.50
2019-05-03T06:40:12.430Z,14.13
2019-05-03T06:42:52.426Z,12.28
2019-05-03T06:45:15.197Z,15.05
2019-05-03T06:47:49.764Z,17.23
2019-05-03T06:50:19.628Z,18.90
2019-05-03T06:52:49.442Z,19.12
2019-05-03T06:55:19.611Z,15.98
2019-05-03T06:57:49.954Z,18.30
2019-05-03T07:00:42.339Z,18.87
2019-05-03T07:03:28.532Z,27.90
2019-05-03T07:06:16.305Z,18.50
2019-05-03T07:09:08.479Z,21.07
2019-05-03T07:11:38.693Z,21.70
2019-05-03T07:14:09.103Z,20.65
2019-05-03T07:16:39.291Z,19.17
2019-05-03T07:19:09.440Z,22.48
2019-05-03T07:21:39.612Z,20.12
2019-05-03T07:24:09.917Z,19.02
2019-05-03T07:26:40.056Z,18.60
2019-05-03T07:29:12.073Z,17.70
2019-05-03T07:31:44.532Z,21.17
2019-05-03T07:34:15.586Z,15.20
2019-05-03T07:36:46.918Z,12.93
2019-05-03T07:39:17.106Z,18.30
2019-05-03T07:41:47.228Z,17.43
2019-05-03T07:44:17.412Z,14.03
2019-05-03T07:46:47.522Z,12.97
2019-05-03T07:49:17.688Z,13.50
2019-05-03T07:51:47.948Z,14.73
2019-05-03T07:54:18.059Z,16.43
2019-05-03T07:56:56.769Z,16.55
2019-05-03T07:59:27.116Z,19.00
2019-05-03T08:01:58.464Z,10.10
2019-05-03T08:04:28.682Z,12.00
2019-05-03T08:06:58.846Z,15.17
2019-05-03T08:09:34.978Z,11.30
2019-05-03T08:12:05.327Z,13.20
2019-05-03T08:14:36.378Z,18.17
2019-05-03T08:17:06.577Z,14.20
2019-05-03T08:19:36.734Z,11.57
2019-05-03T08:22:06.914Z,11.57
2019-05-03T08:24:37.099Z,14.65
2019-05-03T08:27:07.280Z,12.80
2019-05-03T08:29:38.481Z,16.03
2019-05-03T08:32:27.533Z,13.88
2019-05-03T08:35:15.268Z,9.23
2019-05-03T08:37:51.276Z,9.13
2019-05-03T08:40:24.550Z,9.67
2019-05-03T08:42:55.306Z,10.40
2019-05-03T08:45:25.721Z,12.33
2019-05-03T08:47:55.868Z,13.40
2019-05-03T08:50:27.055Z,11.07
2019-05-03T08:52:57.191Z,8.33
2019-05-03T08:55:27.347Z,11.90
2019-05-03T08:57:57.457Z,9.93
2019-05-03T09:00:29.276Z,9.78
2019-05-03T09:02:59.632Z,9.38
2019-05-03T09:05:29.846Z,12.18
2019-05-03T09:08:00.015Z,9.70
2019-05-03T09:10:51.746Z,12.20
2019-05-03T09:13:22.539Z,7.40
2019-05-03T09:15:55.091Z,5.72
2019-05-03T09:18:25.827Z,6.58
2019-05-03T09:20:56.242Z,5.55
2019-05-03T09:23:26.589Z,5.85
2019-05-03T09:25:56.755Z,5.93
2019-05-03T09:28:29.175Z,5.30
2019-05-03T09:30:59.213Z,7.05
2019-05-03T09:33:29.360Z,5.60
2019-05-03T09:35:59.547Z,10.13
2019-05-03T09:38:29.683Z,4.47
2019-05-03T09:40:59.957Z,5.13
2019-05-03T09:43:30.137Z,4.17
2019-05-03T09:46:00.258Z,4.27
2019-05-03T09:48:30.424Z,5.03
2019-05-03T09:51:00.660Z,7.58
2019-05-03T09:53:35.539Z,5.20
2019-05-03T09:56:05.889Z,5.33
2019-05-03T09:58:38.225Z,9.07
2019-05-03T10:01:09.498Z,7.97
2019-05-03T10:03:39.640Z,5.10
2019-05-03T10:06:09.789Z,5.50
2019-05-03T10:08:39.946Z,10.17
2019-05-03T10:11:15.438Z,11.00
2019-05-03T10:13:48.123Z,8.30
2019-05-03T10:16:18.595Z,11.53
2019-05-03T10:18:52.911Z,9.75
2019-05-03T10:21:28.853Z,7.97
2019-05-03T10:23:59.485Z,5.73
2019-05-03T10:26:29.655Z,6.73
2019-05-03T10:28:59.910Z,6.23
2019-05-03T10:31:36.789Z,6.53
2019-05-03T10:34:07.901Z,10.20
2019-05-03T10:36:41.163Z,7.17
2019-05-03T10:39:11.678Z,8.87
2019-05-03T10:41:47.695Z,8.70
2019-05-03T10:44:20.730Z,7.00
2019-05-03T10:46:50.886Z,7.00
2019-05-03T10:49:21.188Z,10.40
2019-05-03T10:51:56.813Z,6.97
2019-05-03T10:54:27.231Z,4.60
2019-05-03T10:57:05.142Z,8.60
2019-05-03T10:59:35.683Z,5.07
2019-05-03T11:02:39.855Z,5.50
2019-05-03T11:05:10.345Z,5.53
2019-05-03T11:07:40.445Z,6.50
2019-05-03T11:10:11.365Z,6.93
2019-05-03T11:12:41.488Z,7.10
2019-05-03T11:15:12.185Z,6.50
2019-05-03T11:17:42.357Z,7.50
2019-05-03T11:20:22.198Z,5.43
2019-05-03T11:22:45.238Z,7.33
2019-05-03T11:25:15.515Z,6.10
2019-05-03T11:27:51.295Z,4.10
2019-05-03T11:30:21.707Z,4.17
2019-05-03T11:32:58.940Z,5.67
2019-05-03T11:35:51.733Z,5.23
2019-05-03T11:38:27.451Z,4.87
2019-05-03T11:40:57.672Z,4.00
2019-05-03T11:43:27.781Z,4.00
2019-05-03T11:45:57.955Z,5.37
2019-05-03T11:48:28.127Z,5.50
2019-05-03T11:50:58.395Z,4.60
2019-05-03T11:53:28.666Z,4.10
2019-05-03T11:55:58.976Z,3.90
2019-05-03T11:58:29.102Z,3.30
2019-05-03T12:01:15.803Z,2.37
2019-05-03T12:03:45.127Z,6.73
2019-05-03T12:06:15.783Z,5.53
2019-05-03T12:08:46.252Z,5.03
2019-05-03T12:11:16.423Z,4.30
2019-05-03T12:13:46.893Z,3.93
2019-05-03T12:16:24.980Z,4.97
2019-05-03T12:18:53.691Z,3.60
2019-05-03T12:21:22.615Z,4.57
2019-05-03T12:23:56.059Z,4.53
2019-05-03T12:26:34.357Z,3.40
2019-05-03T12:28:57.601Z,5.57
2019-05-03T12:31:36.647Z,3.70
2019-05-03T12:33:59.966Z,3.50
2019-05-03T12:36:30.115Z,5.13
2019-05-03T12:39:00.381Z,3.80
2019-05-03T12:41:32.318Z,4.63
2019-05-03T12:44:04.618Z,3.70
2019-05-03T12:46:35.841Z,3.33
2019-05-03T12:49:06.031Z,3.60
2019-05-03T12:51:36.155Z,3.00
2019-05-03T12:54:06.303Z,2.83
2019-05-03T12:56:36.734Z,9.47
2019-05-03T12:59:31.435Z,3.70
2019-05-03T13:02:20.571Z,3.93
2019-05-03T13:04:52.074Z,3.63
2019-05-03T13:07:34.762Z,2.90
2019-05-03T13:10:06.980Z,3.47
2019-05-03T13:12:49.795Z,2.37
2019-05-03T13:15:09.888Z,4.03
2019-05-03T13:17:40.055Z,4.07
2019-05-03T13:20:13.621Z,2.30
2019-05-03T13:22:45.752Z,2.30
2019-05-03T13:25:16.304Z,3.43
2019-05-03T13:27:46.486Z,2.87
2019-05-03T13:30:17.076Z,4.37
2019-05-03T13:32:47.179Z,3.73
2019-05-03T13:35:17.302Z,2.77
2019-05-03T13:37:47.571Z,3.43
2019-05-03T13:40:17.892Z,3.00
2019-05-03T13:42:57.736Z,2.10
2019-05-03T13:45:20.006Z,2.70
2019-05-03T13:47:50.124Z,3.47
2019-05-03T13:50:20.261Z,3.83
2019-05-03T13:52:50.505Z,2.00
2019-05-03T13:55:20.723Z,2.40
2019-05-03T13:57:51.872Z,4.83
2019-05-03T14:00:22.145Z,2.70
2019-05-03T14:02:52.419Z,3.27
2019-05-03T14:05:24.460Z,2.63
2019-05-03T14:07:56.413Z,2.87
2019-05-03T14:10:26.744Z,4.27
2019-05-03T14:12:56.872Z,2.90
2019-05-03T14:15:27.007Z,5.17
2019-05-03T14:17:57.178Z,4.83
2019-05-03T14:20:55.474Z,4.60
2019-05-03T14:23:26.672Z,2.90
2019-05-03T14:25:56.986Z,3.70
2019-05-03T14:28:27.203Z,5.00
2019-05-03T14:30:57.410Z,5.17
2019-05-03T14:33:28.390Z,3.33
2019-05-03T14:35:58.580Z,6.57
2019-05-03T14:38:28.802Z,5.43
2019-05-03T14:40:59.216Z,3.20
2019-05-03T14:43:29.413Z,4.90
2019-05-03T14:45:59.558Z,4.43
2019-05-03T14:48:29.690Z,5.73
2019-05-03T14:50:59.864Z,4.00
2019-05-03T14:53:30.009Z,3.70
2019-05-03T14:56:19.203Z,4.80
2019-05-03T14:59:08.283Z,3.43
2019-05-03T15:02:00.540Z,4.07
2019-05-03T15:04:30.699Z,3.07
2019-05-03T15:07:02.454Z,3.00
2019-05-03T15:09:32.647Z,2.90
2019-05-03T15:12:05.176Z,3.73
2019-05-03T15:14:34.952Z,2.73
2019-05-03T15:17:05.494Z,3.00
2019-05-03T15:19:36.665Z,2.50
2019-05-03T15:22:08.379Z,3.73
2019-05-03T15:24:38.860Z,4.13
2019-05-03T15:27:10.788Z,2.80
2019-05-03T15:29:41.251Z,3.07
2019-05-03T15:32:11.854Z,2.60
2019-05-03T15:34:44.661Z,2.70
2019-05-03T15:37:15.066Z,2.67
2019-05-03T15:39:47.026Z,2.10
2019-05-03T15:42:18.805Z,2.17
2019-05-03T15:45:26.492Z,3.57
2019-05-03T15:48:24.785Z,4.30
2019-05-03T15:50:55.440Z,3.20
2019-05-03T15:53:26.933Z,2.77
2019-05-03T15:55:57.147Z,4.70
2019-05-03T15:58:27.482Z,3.47
2019-05-03T16:00:57.647Z,3.60
2019-05-03T16:03:27.942Z,4.10
2019-05-03T16:06:00.413Z,3.90
2019-05-03T16:08:30.898Z,3.20
2019-05-03T16:11:02.809Z,3.03
2019-05-03T16:13:35.117Z,2.25
2019-05-03T16:16:05.488Z,3.77
2019-05-03T16:18:35.673Z,3.43
2019-05-03T16:21:05.953Z,2.90
2019-05-03T16:23:36.085Z,4.00
2019-05-03T16:26:06.205Z,4.70
2019-05-03T16:28:44.678Z,2.80
2019-05-03T16:31:17.254Z,2.30
2019-05-03T16:33:47.709Z,4.50
2019-05-03T16:36:20.179Z,4.53
2019-05-03T16:38:50.382Z,2.33
2019-05-03T16:41:20.554Z,2.30
2019-05-03T16:47:12.393Z,7.75
2019-05-03T16:49:44.610Z,4.57
2019-05-03T16:52:14.670Z,2.57
2019-05-03T16:54:46.363Z,4.77
2019-05-03T16:57:17.540Z,2.60
2019-05-03T16:59:47.905Z,4.47
2019-05-03T17:02:18.033Z,3.57
2019-05-03T17:04:55.797Z,4.03
2019-05-03T17:07:35.352Z,2.80
2019-05-03T17:10:23.031Z,2.10
2019-05-03T17:12:54.365Z,4.87
2019-05-03T17:15:25.094Z,4.73
2019-05-03T17:17:56.771Z,4.87
2019-05-03T17:20:28.090Z,2.43
2019-05-03T17:22:58.261Z,2.07
2019-05-03T17:25:28.434Z,4.13
2019-05-03T17:27:58.694Z,4.23
2019-05-03T17:30:33.649Z,2.47
2019-05-03T17:33:02.189Z,2.40
2019-05-03T17:35:32.332Z,2.43
2019-05-03T17:38:05.275Z,2.80
2019-05-03T17:40:57.559Z,3.00
2019-05-03T17:43:34.789Z,2.80
2019-05-03T17:46:05.507Z,2.40
2019-05-03T17:48:35.693Z,3.30
2019-05-03T17:51:05.866Z,3.60
2019-05-03T17:53:55.196Z,4.47
2019-05-03T17:56:50.582Z,4.20
2019-05-03T17:59:29.313Z,2.42
2019-05-03T18:02:24.451Z,5.03
2019-05-03T18:05:14.668Z,2.83
2019-05-03T18:08:09.990Z,3.65
2019-05-03T18:10:40.988Z,3.10
2019-05-03T18:13:11.155Z,3.55
2019-05-03T18:15:41.352Z,3.50
2019-05-03T18:18:11.730Z,2.90
2019-05-03T18:20:41.868Z,4.83
2019-05-03T18:23:12.228Z,2.80
2019-05-03T18:25:42.345Z,4.20
2019-05-03T18:28:14.664Z,3.10
2019-05-03T18:30:45.447Z,3.87
2019-05-03T18:33:15.687Z,2.53
2019-05-03T18:35:45.902Z,2.87
2019-05-03T18:38:16.038Z,3.83
2019-05-03T18:40:46.400Z,5.10
2019-05-03T18:43:28.385Z,2.40
2019-05-03T18:46:17.472Z,4.80
2019-05-03T18:48:47.706Z,2.35
2019-05-03T18:51:19.204Z,2.60
2019-05-03T18:53:49.338Z,5.30
2019-05-03T18:56:19.467Z,2.80
2019-05-03T18:58:49.702Z,4.33
2019-05-03T19:01:19.847Z,4.12
2019-05-03T19:03:52.743Z,5.45
2019-05-03T19:06:23.052Z,5.53
2019-05-03T19:09:25.128Z,4.95
2019-05-03T19:12:19.697Z,2.70
2019-05-03T19:14:49.841Z,4.12
2019-05-03T19:17:45.113Z,2.70
2019-05-03T19:20:17.961Z,2.90
2019-05-03T19:22:48.165Z,3.55
2019-05-03T19:25:18.416Z,3.72
2019-05-03T19:27:48.560Z,5.95
2019-05-03T19:30:19.060Z,2.70
2019-05-03T19:32:49.182Z,2.55
2019-05-03T19:35:19.332Z,2.98
2019-05-03T19:37:49.512Z,3.83
2019-05-03T19:40:19.727Z,3.40
2019-05-03T19:42:50.058Z,3.52
2019-05-03T19:45:20.195Z,2.90
2019-05-03T19:47:50.321Z,2.85
2019-05-03T19:50:20.514Z,2.58
2019-05-03T19:53:05.218Z,4.67
2019-05-03T19:55:35.500Z,6.30
2019-05-03T19:58:05.671Z,2.25
2019-05-03T20:01:14.794Z,3.83
2019-05-03T20:03:51.877Z,4.00
2019-05-03T20:06:51.326Z,3.20
2019-05-03T20:09:22.138Z,4.65
2019-05-03T20:11:55.118Z,3.85
2019-05-03T20:14:25.729Z,4.05
2019-05-03T20:16:56.193Z,3.37
2019-05-03T20:19:26.306Z,3.00
2019-05-03T20:21:56.809Z,9.25
2019-05-03T20:24:27.008Z,10.95
2019-05-03T20:26:57.245Z,4.87
2019-05-03T20:29:27.399Z,10.50
2019-05-03T20:31:57.578Z,11.12
2019-05-03T20:34:27.769Z,11.22
2019-05-03T20:36:57.897Z,9.10
2019-05-03T20:39:28.014Z,5.75
2019-05-03T20:41:58.152Z,6.35
2019-05-03T20:44:41.501Z,6.35
2019-05-03T20:47:28.070Z,5.42
2019-05-03T20:50:17.816Z,5.75
2019-05-03T20:52:48.319Z,3.37
2019-05-03T20:55:18.604Z,5.62
2019-05-03T20:57:48.772Z,4.90
2019-05-03T21:00:22.869Z,8.08
2019-05-03T21:02:56.610Z,2.65
2019-05-03T21:05:30.692Z,3.27
2019-05-03T21:07:56.840Z,3.75
2019-05-03T21:10:27.935Z,4.30
2019-05-03T21:12:58.074Z,5.45
2019-05-03T21:15:47.246Z,3.40
2019-05-03T21:18:43.668Z,5.90
2019-05-03T21:21:28.249Z,6.25
2019-05-03T21:24:01.962Z,4.47
2019-05-03T21:26:32.141Z,5.67
2019-05-03T21:29:02.388Z,4.43
2019-05-03T21:31:32.513Z,4.50
2019-05-03T21:34:02.814Z,5.12
2019-05-03T21:36:34.988Z,4.25
2019-05-03T21:39:06.841Z,6.40
2019-05-03T21:41:38.179Z,3.83
2019-05-03T21:44:10.314Z,5.75
2019-05-03T21:46:45.290Z,6.72
2019-05-03T21:49:22.505Z,4.80
2019-05-03T21:51:53.649Z,4.22
2019-05-03T21:54:24.597Z,5.60
2019-05-03T21:56:57.838Z,5.50
2019-05-03T22:02:39.368Z,7.83
2019-05-03T22:05:10.050Z,5.70
2019-05-03T22:07:40.323Z,3.87
2019-05-03T22:10:10.996Z,5.78
2019-05-03T22:12:41.210Z,6.80
2019-05-03T22:15:19.765Z,4.55
2019-05-03T22:18:06.662Z,7.55
2019-05-03T22:20:45.349Z,4.17
2019-05-03T22:23:36.671Z,3.70
2019-05-03T22:26:07.128Z,6.05
2019-05-03T22:28:37.521Z,3.95
2019-05-03T22:31:08.004Z,4.37
2019-05-03T22:33:38.273Z,6.15
2019-05-03T22:36:09.777Z,3.75
2019-05-03T22:38:39.990Z,4.67
2019-05-03T22:41:10.622Z,3.42
2019-05-03T22:43:40.908Z,3.55
2019-05-03T22:46:14.477Z,4.80
2019-05-03T22:48:44.918Z,7.95
2019-05-03T22:51:15.371Z,7.45
2019-05-03T22:53:45.449Z,6.62
2019-05-03T22:56:15.772Z,6.75
2019-05-03T22:58:46.114Z,5.25
2019-05-03T23:01:19.568Z,4.30
2019-05-03T23:03:51.515Z,4.85
2019-05-03T23:06:22.702Z,6.55
2019-05-03T23:08:56.016Z,6.67
2019-05-03T23:11:26.675Z,5.10
2019-05-03T23:14:04.906Z,16.82
2019-05-03T23:16:35.760Z,5.00
2019-05-03T23:19:05.995Z,4.83
2019-05-03T23:21:59.735Z,4.33
2019-05-03T23:24:29.834Z,5.33
2019-05-03T23:27:00.035Z,6.85
2019-05-03T23:29:30.160Z,5.35
2019-05-03T23:32:00.350Z,6.45
2019-05-03T23:34:30.667Z,4.55
2019-05-03T23:37:00.961Z,5.08
2019-05-03T23:39:32.359Z,5.28
2019-05-03T23:42:02.484Z,4.53
2019-05-03T23:44:34.872Z,6.87
2019-05-03T23:47:29.781Z,9.68
2019-05-03T23:50:00.079Z,5.37
2019-05-03T23:52:35.210Z,4.60
2019-05-03T23:55:14.762Z,6.50
2019-05-03T23:57:44.828Z,6.37
